Elev 860ft 32.88 °N, 112.72 °W

Gila Bend, AZ

Gila Bend Station | Report | Change

6:55 AM MST on July 20, 2017 (GMT -0700) |

105° | 82°
82 F
Feels like 86°

Partly Cloudy

N
0

Wind North

Today is forecast to be nearly the same temperature as yesterday.

Additional Conditions
Pressure
-
Visibility
10 miles
Clouds
Scattered Clouds 11000 ft
Dew Point
-
Humidity
30%
Rainfall
-
Snow Depth
0 in
METAR KGXF 231558Z 20008KT 10SM SCT110 36/16 A2991 RMK AO2A SLP113 T03560156
Astronomy
Sun
Rise
Set
Actual Time
6:01 AM
7:08 PM
Civil Twilight
5:35 AM
7:34 PM
Nautical Twilight
5:05 AM
8:04 PM
Astronomical Twilight
4:33 AM
8:36 PM
Length of Visible Light
13 h 58 m
Length of Day
13 h 7 m
Tomorrow will be 1 minutes 51 seconds shorter
Moon
7:55 AM
8:36 PM
waxing crescent
5% of the Moon is Illuminated
Aug 29
Waxing Half First Qtr
Sep 6
Full Moon
Sep 13
Waning Half Last Qtr
Sep 20
New Moon
Station History
 
Forecast
Average *
Range *
Temperature
High
-
-
- to -
Low
-
-
- to -
Precipitation
Rain
-
-
- to -
Snow
-
-
Dew Point
Low
-
-
- to -
High
-
-
- to -
 
Actual
Average *
Record
Temperature
High
-
107 °F
117 °F (1938)
Low
-
79 °F
58 °F (1947)
Today's Extremes
Extremes data not available
Category 6

Personal Eclipse Weather: Impacts on the Atmosphere

Bob Henson


Section: Miscellaneous

Stations
Nearby Weather Stations
94.2 F 102.0 F 72.0 F 48.0 %
SE at 0.0 mph
0.0 in 709.0 ft
9:02 AM MST
96.1 F 96.0 F 60.1 F 30.0 %
SSW at 9.2 mph
-- in 883.0 ft
9:04 AM MST